MYGF METAR and TAF weather

Enter ICAO airport designator
Station Type Date Time Source
MYGF METAR 2022/08/13 11:00 UTC NOAA

MYGF 131100Z 00000KT 9999 FEW015CB SCT250 25/23 A3001


Station Type Date Time Source
MYGF Decoded METAR 2022/08/13 11:00 UTC NOAA

Freeport, Grand Bahama, Bahamas, The (MYGF) 26-33N 078-42W 11M
Aug 13, 2022 - 07:00 AM EDT / 2022.08.13 1100 UTC
Wind: Calm:0
Visibility: greater than 7 mile(s):0
Sky conditions: partly cloudy
Weather: Cumulonimbus clouds observed
Temperature: 77 F (25 C)
Dew Point: 73 F (23 C)
Relative Humidity: 88%
Pressure (altimeter): 30.01 in. Hg (1016 hPa)
ob: MYGF 131100Z 00000KT 9999 FEW015CB SCT250 25/23 A3001
cycle: 11

Station Type Date Time Source
MYGF TAF 2022/08/13 12:30 UTC NOAA

MYGF 130930Z 1312/1412 14007KT 9999 SCT020 PROB30
TEMPO 1315/1319 VCSH FEW018CB SCT025

Example: see airport list